createdAt,value
2023-12-16T00:00:21.736Z,38.16
2023-12-16T00:03:11.640Z,38.56
2023-12-16T00:05:40.763Z,38.72
2023-12-16T00:08:09.103Z,38.62
2023-12-16T00:10:37.350Z,38.51
2023-12-16T00:13:05.904Z,38.41
2023-12-16T00:15:34.631Z,38.59
2023-12-16T00:18:03.036Z,38.44
2023-12-16T00:20:31.513Z,38.45
2023-12-16T00:22:59.717Z,38.14
2023-12-16T00:25:27.988Z,38.36
2023-12-16T00:27:56.612Z,38.69
2023-12-16T00:30:24.947Z,38.75
2023-12-16T00:32:53.382Z,38.91
2023-12-16T00:35:23.161Z,38.61
2023-12-16T00:37:51.869Z,38.96
2023-12-16T00:40:20.144Z,38.76
2023-12-16T00:42:48.733Z,38.81
2023-12-16T00:45:20.210Z,38.73
2023-12-16T00:47:50.880Z,38.91
2023-12-16T00:50:19.064Z,39.01
2023-12-16T00:52:47.211Z,38.86
2023-12-16T00:55:15.602Z,39.27
2023-12-16T00:57:43.992Z,39.00
2023-12-16T01:03:41.035Z,39.15
2023-12-16T01:06:10.131Z,39.29
2023-12-16T01:08:38.885Z,39.30
2023-12-16T01:11:07.608Z,39.07
2023-12-16T01:13:35.820Z,39.40
2023-12-16T01:16:04.294Z,38.86
2023-12-16T01:18:32.975Z,39.26
2023-12-16T01:21:05.857Z,39.15
2023-12-16T01:23:34.738Z,39.13
2023-12-16T01:26:04.793Z,39.15
2023-12-16T01:28:33.704Z,39.12
2023-12-16T01:31:02.568Z,39.03
2023-12-16T01:33:32.179Z,39.24
2023-12-16T01:36:01.081Z,39.12
2023-12-16T01:38:29.504Z,39.30
2023-12-16T01:40:57.744Z,39.16
2023-12-16T01:43:26.101Z,39.13
2023-12-16T01:46:03.136Z,39.35
2023-12-16T01:48:32.971Z,39.25
2023-12-16T01:51:05.537Z,39.32
2023-12-16T01:53:35.327Z,39.28
2023-12-16T01:56:04.450Z,39.16
2023-12-16T01:58:32.881Z,39.42
2023-12-16T02:01:01.191Z,39.34
2023-12-16T02:03:30.391Z,39.30
2023-12-16T02:05:59.208Z,39.29
2023-12-16T02:08:27.354Z,39.42
2023-12-16T02:10:55.595Z,39.62
2023-12-16T02:13:24.036Z,39.35
2023-12-16T02:15:52.722Z,39.60
2023-12-16T02:18:21.178Z,39.65
2023-12-16T02:20:49.980Z,39.74
2023-12-16T02:23:18.773Z,39.62
2023-12-16T02:25:47.101Z,39.77
2023-12-16T02:28:15.687Z,39.86
2023-12-16T02:30:43.929Z,39.78
2023-12-16T02:33:12.309Z,39.74
2023-12-16T02:35:41.691Z,39.99
2023-12-16T02:38:11.044Z,39.96
2023-12-16T02:40:39.208Z,39.74
2023-12-16T02:43:07.483Z,39.81
2023-12-16T02:45:35.858Z,39.87
2023-12-16T02:48:04.239Z,39.81
2023-12-16T02:50:32.685Z,39.76
2023-12-16T02:53:00.877Z,39.78
2023-12-16T02:55:29.237Z,39.91
2023-12-16T02:57:57.700Z,39.88
2023-12-16T03:00:26.308Z,39.88
2023-12-16T03:02:54.513Z,39.85
2023-12-16T03:05:24.616Z,40.04
2023-12-16T03:07:53.208Z,39.91
2023-12-16T03:10:22.211Z,40.00
2023-12-16T03:12:50.548Z,40.03
2023-12-16T03:15:19.736Z,39.97
2023-12-16T03:17:50.410Z,39.93
2023-12-16T03:20:18.619Z,40.19
2023-12-16T03:22:46.996Z,40.04
2023-12-16T03:25:15.862Z,40.21
2023-12-16T03:27:44.281Z,39.83
2023-12-16T03:30:12.942Z,40.22
2023-12-16T03:32:41.378Z,40.18
2023-12-16T03:35:09.640Z,40.23
2023-12-16T03:37:38.104Z,39.88
2023-12-16T03:40:07.366Z,40.05
2023-12-16T03:42:35.732Z,40.08
2023-12-16T03:45:04.258Z,40.35
2023-12-16T03:47:33.569Z,40.25
2023-12-16T03:50:02.200Z,40.34
2023-12-16T03:52:30.616Z,40.25
2023-12-16T03:54:59.434Z,40.24
2023-12-16T03:57:28.766Z,40.47
2023-12-16T03:59:57.081Z,40.42
2023-12-16T04:02:25.564Z,40.50
2023-12-16T04:04:55.176Z,40.50
2023-12-16T04:07:23.415Z,40.41
2023-12-16T04:09:51.808Z,40.59
2023-12-16T04:12:19.973Z,40.68
2023-12-16T04:14:48.234Z,40.62
2023-12-16T04:17:16.598Z,40.79
2023-12-16T04:19:52.123Z,40.81
2023-12-16T04:22:20.875Z,40.87
2023-12-16T04:24:50.193Z,40.89
2023-12-16T04:27:18.419Z,41.07
2023-12-16T04:29:46.711Z,41.12
2023-12-16T04:32:14.884Z,41.06
2023-12-16T04:34:43.117Z,41.26
2023-12-16T04:37:11.705Z,41.24
2023-12-16T04:39:40.005Z,41.33
2023-12-16T04:42:08.926Z,41.16
2023-12-16T04:44:38.354Z,41.28
2023-12-16T04:47:06.592Z,41.29
2023-12-16T04:49:35.634Z,41.41
2023-12-16T04:52:04.294Z,41.50
2023-12-16T04:54:32.700Z,41.38
2023-12-16T04:57:01.163Z,41.55
2023-12-16T04:59:29.501Z,41.46
2023-12-16T05:01:57.744Z,41.56
2023-12-16T05:04:27.040Z,41.53
2023-12-16T05:06:56.201Z,41.68
2023-12-16T05:09:24.584Z,41.75
2023-12-16T05:11:52.903Z,41.70
2023-12-16T05:14:21.078Z,41.67
2023-12-16T05:16:49.857Z,41.69
2023-12-16T05:19:18.502Z,41.83
2023-12-16T05:21:46.926Z,41.90
2023-12-16T05:24:15.682Z,42.12
2023-12-16T05:26:43.898Z,42.14
2023-12-16T05:29:12.929Z,42.06
2023-12-16T05:31:41.983Z,42.11
2023-12-16T05:34:10.617Z,42.17
2023-12-16T05:36:42.377Z,42.23
2023-12-16T05:39:10.976Z,42.23
2023-12-16T05:41:39.200Z,42.29
2023-12-16T05:44:07.512Z,42.22
2023-12-16T05:46:35.738Z,42.32
2023-12-16T05:49:04.196Z,42.26
2023-12-16T05:51:40.087Z,42.39
2023-12-16T05:54:09.082Z,42.45
2023-12-16T05:56:37.486Z,42.55
2023-12-16T05:59:05.742Z,42.58
2023-12-16T06:01:34.347Z,42.67
2023-12-16T06:04:03.224Z,42.76
2023-12-16T06:06:31.470Z,42.86
2023-12-16T06:08:59.652Z,42.98
2023-12-16T06:11:27.978Z,43.02
2023-12-16T06:13:56.218Z,43.05
2023-12-16T06:16:24.613Z,43.10
2023-12-16T06:18:53.451Z,43.11
2023-12-16T06:21:22.056Z,43.19
2023-12-16T06:23:50.233Z,43.28
2023-12-16T06:26:20.049Z,43.32
2023-12-16T06:28:48.148Z,43.47
2023-12-16T06:31:17.812Z,43.44
2023-12-16T06:33:46.988Z,43.53
2023-12-16T06:36:15.883Z,43.60
2023-12-16T06:38:44.295Z,43.71
2023-12-16T06:41:12.670Z,43.73
2023-12-16T06:43:40.934Z,43.78
2023-12-16T06:46:09.753Z,43.68
2023-12-16T06:48:38.860Z,43.72
2023-12-16T06:51:07.106Z,43.81
2023-12-16T06:53:35.721Z,43.91
2023-12-16T06:56:05.699Z,43.85
2023-12-16T06:58:34.593Z,44.06
2023-12-16T07:01:03.289Z,44.09
2023-12-16T07:03:32.020Z,44.07
2023-12-16T07:06:02.619Z,44.39
2023-12-16T07:08:31.684Z,44.25
2023-12-16T07:11:00.152Z,44.41
2023-12-16T07:13:28.478Z,44.46
2023-12-16T07:15:56.743Z,44.43
2023-12-16T07:18:25.062Z,44.50
2023-12-16T07:20:53.333Z,44.60
2023-12-16T07:23:21.590Z,44.67
2023-12-16T07:25:50.204Z,44.66
2023-12-16T07:28:18.923Z,44.81
2023-12-16T07:30:47.392Z,44.72
2023-12-16T07:33:15.805Z,44.95
2023-12-16T07:35:44.837Z,44.88
2023-12-16T07:38:13.098Z,44.89
2023-12-16T07:40:41.649Z,45.07
2023-12-16T07:43:09.801Z,44.93
2023-12-16T07:45:38.011Z,45.08
2023-12-16T07:48:06.256Z,45.35
2023-12-16T07:50:34.701Z,45.36
2023-12-16T07:53:02.824Z,45.10
2023-12-16T07:55:31.624Z,45.06
2023-12-16T07:58:00.620Z,44.72
2023-12-16T08:00:30.025Z,44.64
2023-12-16T08:02:58.469Z,44.49
2023-12-16T08:05:26.902Z,44.56
2023-12-16T08:07:55.617Z,43.87
2023-12-16T08:10:23.954Z,43.96
2023-12-16T08:12:53.405Z,43.64
2023-12-16T08:15:21.778Z,43.83
2023-12-16T08:17:50.252Z,43.45
2023-12-16T08:20:18.601Z,43.21
2023-12-16T08:22:46.708Z,43.20
2023-12-16T08:25:15.319Z,43.01
2023-12-16T08:27:43.903Z,42.93
2023-12-16T08:30:12.680Z,42.65
2023-12-16T08:32:41.305Z,42.48
2023-12-16T08:35:09.748Z,42.47
2023-12-16T08:37:38.291Z,42.23
2023-12-16T08:40:08.096Z,42.00
2023-12-16T08:42:36.434Z,42.01
2023-12-16T08:45:04.893Z,41.81
2023-12-16T08:47:33.398Z,41.67
2023-12-16T08:50:01.591Z,41.49
2023-12-16T08:52:35.158Z,41.45
2023-12-16T08:55:05.501Z,41.44
2023-12-16T08:57:33.966Z,41.37
2023-12-16T09:00:02.337Z,41.28
2023-12-16T09:02:30.737Z,41.21
2023-12-16T09:04:59.156Z,41.08
2023-12-16T09:07:27.500Z,40.87
2023-12-16T09:09:55.729Z,40.88
2023-12-16T09:12:24.101Z,40.75
2023-12-16T09:14:53.325Z,40.63
2023-12-16T09:17:21.612Z,40.66
2023-12-16T09:19:50.656Z,40.57
2023-12-16T09:22:19.302Z,40.38
2023-12-16T09:24:48.758Z,40.34
2023-12-16T09:27:16.869Z,40.54
2023-12-16T09:29:45.298Z,40.42
2023-12-16T09:32:13.484Z,40.29
2023-12-16T09:34:42.245Z,40.07
2023-12-16T09:37:10.817Z,40.18
2023-12-16T09:39:40.385Z,40.15
2023-12-16T09:42:08.766Z,40.19
2023-12-16T09:44:38.971Z,40.18
2023-12-16T09:47:07.422Z,40.45
2023-12-16T09:49:37.579Z,40.46
2023-12-16T09:52:06.596Z,40.59
2023-12-16T09:54:34.795Z,41.05
2023-12-16T09:57:04.506Z,41.29
2023-12-16T09:59:36.853Z,41.66
2023-12-16T10:02:14.090Z,42.08
2023-12-16T10:04:43.332Z,42.33
2023-12-16T10:07:11.767Z,42.48
2023-12-16T10:09:40.040Z,42.90
2023-12-16T10:12:08.255Z,43.10
2023-12-16T10:14:50.533Z,43.26
2023-12-16T10:17:21.305Z,43.52
2023-12-16T10:19:50.092Z,43.48
2023-12-16T10:22:20.032Z,43.55
2023-12-16T10:24:48.841Z,43.65
2023-12-16T10:27:17.177Z,43.62
2023-12-16T10:29:58.017Z,43.60
2023-12-16T10:32:32.225Z,43.47
2023-12-16T10:35:01.059Z,43.64
2023-12-16T10:37:30.142Z,43.78
2023-12-16T10:39:58.902Z,43.87
2023-12-16T10:42:27.908Z,44.16
2023-12-16T10:44:56.109Z,44.42
2023-12-16T10:47:27.987Z,44.27
2023-12-16T10:49:59.462Z,44.29
2023-12-16T10:52:33.034Z,44.24
2023-12-16T10:55:05.946Z,44.29
2023-12-16T10:57:59.704Z,44.38
2023-12-16T11:00:31.888Z,44.14
2023-12-16T11:03:29.600Z,44.05
2023-12-16T11:06:03.872Z,43.86
2023-12-16T11:08:33.941Z,43.79
2023-12-16T11:11:04.159Z,43.75
2023-12-16T11:13:35.807Z,43.79
2023-12-16T11:16:15.247Z,44.17
2023-12-16T11:18:49.487Z,44.10
2023-12-16T11:21:21.396Z,44.42
2023-12-16T11:23:50.403Z,44.19
2023-12-16T11:26:18.734Z,44.26
2023-12-16T11:28:54.164Z,44.52
2023-12-16T11:31:22.525Z,44.64
2023-12-16T11:33:51.504Z,44.53
2023-12-16T11:36:49.452Z,44.41
2023-12-16T11:39:37.760Z,44.69
2023-12-16T11:42:09.043Z,44.59
2023-12-16T11:44:48.719Z,44.42
2023-12-16T11:47:22.396Z,44.37
2023-12-16T11:49:52.457Z,44.27
2023-12-16T11:52:23.701Z,44.47
2023-12-16T11:54:58.576Z,44.36
2023-12-16T11:57:28.594Z,44.13
2023-12-16T11:59:58.538Z,43.97
2023-12-16T12:02:27.412Z,43.82
2023-12-16T12:04:56.358Z,43.76
2023-12-16T12:07:25.757Z,43.77
2023-12-16T12:09:55.036Z,43.62
2023-12-16T12:12:23.214Z,43.37
2023-12-16T12:14:51.362Z,43.43
2023-12-16T12:17:20.297Z,43.30
2023-12-16T12:19:49.697Z,43.15
2023-12-16T12:22:21.731Z,42.82
2023-12-16T12:24:50.282Z,42.68
2023-12-16T12:27:19.986Z,42.62
2023-12-16T12:30:04.626Z,42.41
2023-12-16T12:32:34.485Z,42.49
2023-12-16T12:35:08.851Z,42.30
2023-12-16T12:37:39.614Z,42.09
2023-12-16T12:40:18.181Z,42.06
2023-12-16T12:42:54.980Z,41.84
2023-12-16T12:45:37.435Z,41.78
2023-12-16T12:48:17.889Z,41.36
2023-12-16T12:50:48.353Z,41.35
2023-12-16T12:53:23.762Z,41.45
2023-12-16T12:55:56.134Z,41.02
2023-12-16T12:58:29.152Z,40.56
2023-12-16T13:01:02.573Z,40.41
2023-12-16T13:03:33.142Z,39.99
2023-12-16T13:06:07.456Z,40.04
2023-12-16T13:08:38.104Z,40.01
2023-12-16T13:11:07.383Z,39.72
2023-12-16T13:13:38.566Z,39.42
2023-12-16T13:16:07.445Z,39.35
2023-12-16T13:18:36.871Z,38.84
2023-12-16T13:21:06.651Z,38.65
2023-12-16T13:23:34.902Z,38.65
2023-12-16T13:26:06.783Z,38.61
2023-12-16T13:28:35.134Z,38.66
2023-12-16T13:31:06.626Z,38.65
2023-12-16T13:33:37.263Z,38.57
2023-12-16T13:36:32.549Z,38.05
2023-12-16T13:38:55.842Z,37.97
2023-12-16T13:41:25.251Z,38.00
2023-12-16T13:43:53.445Z,37.85
2023-12-16T13:46:21.699Z,37.71
2023-12-16T13:48:51.692Z,37.90
2023-12-16T13:51:20.363Z,38.03
2023-12-16T13:53:49.091Z,37.96
2023-12-16T13:56:18.560Z,38.02
2023-12-16T13:58:46.872Z,37.92
2023-12-16T14:01:15.194Z,37.99
2023-12-16T14:03:44.458Z,38.19
2023-12-16T14:06:13.016Z,38.09
2023-12-16T14:08:41.345Z,38.19
2023-12-16T14:11:09.559Z,38.20
2023-12-16T14:13:38.158Z,38.15
2023-12-16T14:16:08.214Z,37.88
2023-12-16T14:18:37.359Z,37.95
2023-12-16T14:21:07.113Z,37.98
2023-12-16T14:23:36.258Z,38.10
2023-12-16T14:26:05.944Z,38.15
2023-12-16T14:28:34.432Z,38.08
2023-12-16T14:31:03.521Z,38.18
2023-12-16T14:33:32.144Z,38.18
2023-12-16T14:36:01.163Z,38.38
2023-12-16T14:38:30.355Z,38.38
2023-12-16T14:40:58.659Z,38.53
2023-12-16T14:43:27.442Z,38.77
2023-12-16T14:45:55.861Z,38.91
2023-12-16T14:48:25.661Z,38.94
2023-12-16T14:50:54.613Z,39.10
2023-12-16T14:53:22.938Z,39.35
2023-12-16T14:55:51.755Z,39.46
2023-12-16T14:58:19.896Z,39.77
2023-12-16T15:00:48.341Z,40.01
2023-12-16T15:03:17.882Z,40.32
2023-12-16T15:05:46.658Z,40.66
2023-12-16T15:08:15.643Z,40.91
2023-12-16T15:10:43.986Z,40.98
2023-12-16T15:13:12.706Z,41.03
2023-12-16T15:15:41.155Z,41.16
2023-12-16T15:18:09.526Z,41.30
2023-12-16T15:20:39.046Z,41.42
2023-12-16T15:23:08.333Z,41.77
2023-12-16T15:25:38.017Z,41.95
2023-12-16T15:28:06.785Z,42.26
2023-12-16T15:30:35.429Z,42.52
2023-12-16T15:33:04.588Z,42.76
2023-12-16T15:35:33.761Z,42.82
2023-12-16T15:38:03.421Z,42.93
2023-12-16T15:40:31.777Z,43.24
2023-12-16T15:43:00.763Z,43.50
2023-12-16T15:45:29.249Z,43.85
2023-12-16T15:47:58.400Z,43.93
2023-12-16T15:50:26.737Z,44.06
2023-12-16T15:52:55.181Z,44.38
2023-12-16T15:55:23.386Z,44.41
2023-12-16T15:57:51.912Z,44.55
2023-12-16T16:00:20.322Z,44.64
2023-12-16T16:02:48.746Z,44.71
2023-12-16T16:05:17.326Z,44.85
2023-12-16T16:07:46.264Z,45.08
2023-12-16T16:10:15.760Z,45.42
2023-12-16T16:12:45.299Z,45.66
2023-12-16T16:15:17.615Z,45.93
2023-12-16T16:17:48.387Z,46.05
2023-12-16T16:20:18.338Z,46.22
2023-12-16T16:22:49.945Z,46.50
2023-12-16T16:25:18.626Z,46.88
2023-12-16T16:27:47.474Z,47.25
2023-12-16T16:30:16.016Z,47.69
2023-12-16T16:32:45.581Z,47.97
2023-12-16T16:35:13.813Z,48.08
2023-12-16T16:37:43.122Z,48.62
2023-12-16T16:40:12.070Z,48.97
2023-12-16T16:42:40.670Z,49.27
2023-12-16T16:45:10.406Z,49.52
2023-12-16T16:47:39.191Z,49.61
2023-12-16T16:50:08.448Z,49.64
2023-12-16T16:52:37.253Z,49.71
2023-12-16T16:55:09.370Z,49.93
2023-12-16T16:57:38.365Z,50.01
2023-12-16T17:00:08.890Z,50.35
2023-12-16T17:02:38.892Z,50.53
2023-12-16T17:05:08.308Z,50.89
2023-12-16T17:07:36.960Z,50.97
2023-12-16T17:10:06.020Z,51.31
2023-12-16T17:12:34.870Z,51.64
2023-12-16T17:15:03.265Z,51.95
2023-12-16T17:17:33.856Z,51.97
2023-12-16T17:20:02.305Z,52.27
2023-12-16T17:22:31.213Z,52.54
2023-12-16T17:25:00.499Z,52.84
2023-12-16T17:27:30.214Z,52.90
2023-12-16T17:29:59.118Z,53.21
2023-12-16T17:32:27.593Z,53.28
2023-12-16T17:34:56.805Z,53.52
2023-12-16T17:37:25.814Z,53.72
2023-12-16T17:39:54.127Z,53.87
2023-12-16T17:42:22.376Z,54.01
2023-12-16T17:44:51.367Z,54.11
2023-12-16T17:47:20.176Z,54.09
2023-12-16T17:49:48.570Z,54.31
2023-12-16T17:52:16.848Z,54.50
2023-12-16T17:54:45.647Z,54.50
2023-12-16T17:57:14.440Z,54.55
2023-12-16T17:59:44.184Z,54.52
2023-12-16T18:02:12.979Z,54.95
2023-12-16T18:04:41.355Z,54.78
2023-12-16T18:07:09.814Z,54.96
2023-12-16T18:09:38.265Z,54.99
2023-12-16T18:12:06.888Z,55.24
2023-12-16T18:14:35.751Z,55.57
2023-12-16T18:17:04.243Z,55.59
2023-12-16T18:19:33.050Z,55.53
2023-12-16T18:22:01.247Z,55.61
2023-12-16T18:24:29.610Z,55.63
2023-12-16T18:26:58.732Z,55.61
2023-12-16T18:29:27.402Z,55.63
2023-12-16T18:31:56.214Z,55.80
2023-12-16T18:34:25.107Z,55.76
2023-12-16T18:36:53.700Z,55.70
2023-12-16T18:39:22.899Z,55.65
2023-12-16T18:41:51.039Z,55.52
2023-12-16T18:44:19.792Z,55.65
2023-12-16T18:46:49.313Z,55.64
2023-12-16T18:49:18.155Z,55.61
2023-12-16T18:51:46.502Z,55.56
2023-12-16T18:54:15.491Z,55.57
2023-12-16T18:56:44.761Z,55.64
2023-12-16T18:59:13.778Z,55.44
2023-12-16T19:01:42.029Z,55.36
2023-12-16T19:04:11.017Z,55.21
2023-12-16T19:06:39.350Z,55.24
2023-12-16T19:09:08.803Z,55.06
2023-12-16T19:11:37.168Z,54.85
2023-12-16T19:14:06.173Z,54.53
2023-12-16T19:16:35.686Z,54.53
2023-12-16T19:19:04.694Z,54.52
2023-12-16T19:21:33.659Z,54.42
2023-12-16T19:24:01.928Z,54.28
2023-12-16T19:26:30.624Z,54.34
2023-12-16T19:28:59.413Z,53.98
2023-12-16T19:31:28.533Z,54.25
2023-12-16T19:33:57.492Z,54.13
2023-12-16T19:36:26.633Z,54.13
2023-12-16T19:38:58.183Z,53.80
2023-12-16T19:41:26.796Z,53.59
2023-12-16T19:43:56.139Z,53.58
2023-12-16T19:46:26.034Z,53.43
2023-12-16T19:48:54.893Z,53.45
2023-12-16T19:51:23.545Z,53.35
2023-12-16T19:53:51.949Z,53.38
2023-12-16T19:56:20.394Z,53.27
2023-12-16T19:58:48.782Z,53.30
2023-12-16T20:01:17.235Z,53.20
2023-12-16T20:03:46.768Z,53.36
2023-12-16T20:06:15.627Z,53.31
2023-12-16T20:08:44.346Z,53.26
2023-12-16T20:11:13.930Z,53.17
2023-12-16T20:13:42.377Z,53.30
2023-12-16T20:16:10.660Z,53.18
2023-12-16T20:18:39.210Z,53.17
2023-12-16T20:21:07.845Z,53.18
2023-12-16T20:23:36.097Z,53.24
2023-12-16T20:26:04.957Z,53.22
2023-12-16T20:28:33.335Z,53.19
2023-12-16T20:31:02.010Z,53.19
2023-12-16T20:33:30.457Z,53.28
2023-12-16T20:35:59.039Z,53.36
2023-12-16T20:38:27.270Z,53.15
2023-12-16T20:40:56.246Z,53.13
2023-12-16T20:43:25.008Z,53.05
2023-12-16T20:45:53.447Z,52.99
2023-12-16T20:48:22.796Z,52.91
2023-12-16T20:50:51.354Z,52.76
2023-12-16T20:53:19.930Z,52.62
2023-12-16T20:55:48.327Z,52.67
2023-12-16T20:58:17.038Z,52.54
2023-12-16T21:00:45.665Z,52.57
2023-12-16T21:03:14.569Z,52.68
2023-12-16T21:05:44.926Z,52.89
2023-12-16T21:08:13.636Z,52.79
2023-12-16T21:10:41.974Z,52.77
2023-12-16T21:13:11.490Z,52.71
2023-12-16T21:15:41.190Z,52.66
2023-12-16T21:18:09.755Z,52.63
2023-12-16T21:20:38.164Z,52.52
2023-12-16T21:23:07.120Z,52.64
2023-12-16T21:25:35.306Z,53.14
2023-12-16T21:28:03.648Z,53.66
2023-12-16T21:30:33.316Z,54.31
2023-12-16T21:33:02.317Z,55.04
2023-12-16T21:35:31.568Z,55.16
2023-12-16T21:38:00.181Z,55.70
2023-12-16T21:40:28.336Z,55.77
2023-12-16T21:42:56.520Z,55.87
2023-12-16T21:45:24.745Z,55.93
2023-12-16T21:47:53.783Z,55.95
2023-12-16T21:50:22.976Z,55.93
2023-12-16T21:52:51.901Z,55.89
2023-12-16T21:55:20.219Z,55.82
2023-12-16T21:57:49.082Z,55.60
2023-12-16T22:00:19.426Z,55.67
2023-12-16T22:02:47.690Z,55.56
2023-12-16T22:05:17.333Z,55.40
2023-12-16T22:07:45.904Z,55.33
2023-12-16T22:10:14.474Z,55.07
2023-12-16T22:12:43.515Z,54.87
2023-12-16T22:15:12.957Z,54.63
2023-12-16T22:17:41.713Z,54.43
2023-12-16T22:20:10.904Z,54.45
2023-12-16T22:22:39.831Z,54.20
2023-12-16T22:25:08.694Z,54.09
2023-12-16T22:27:38.020Z,53.93
2023-12-16T22:30:07.840Z,54.18
2023-12-16T22:32:36.383Z,54.26
2023-12-16T22:35:05.831Z,54.20
2023-12-16T22:37:35.281Z,53.96
2023-12-16T22:40:03.559Z,53.70
2023-12-16T22:42:32.003Z,53.92
2023-12-16T22:45:00.398Z,53.85
2023-12-16T22:47:28.753Z,53.67
2023-12-16T22:49:58.222Z,53.61
2023-12-16T22:52:27.440Z,53.24
2023-12-16T22:54:56.775Z,53.22
2023-12-16T22:57:25.407Z,52.90
2023-12-16T22:59:54.248Z,52.77
2023-12-16T23:02:22.937Z,52.76
2023-12-16T23:04:51.215Z,52.35
2023-12-16T23:07:19.478Z,52.48
2023-12-16T23:09:47.677Z,52.49
2023-12-16T23:12:16.517Z,52.13
2023-12-16T23:14:45.397Z,52.03
2023-12-16T23:17:13.738Z,51.94
2023-12-16T23:19:42.570Z,51.87
2023-12-16T23:22:11.326Z,51.69
2023-12-16T23:24:41.470Z,51.95
2023-12-16T23:27:11.314Z,52.05
2023-12-16T23:29:40.946Z,51.86
2023-12-16T23:32:09.869Z,51.87
2023-12-16T23:34:39.619Z,52.22
2023-12-16T23:37:09.689Z,52.10
2023-12-16T23:39:39.195Z,52.15
2023-12-16T23:42:08.942Z,52.11
2023-12-16T23:44:37.948Z,51.83
2023-12-16T23:47:07.736Z,52.11
2023-12-16T23:49:37.294Z,51.88
2023-12-16T23:52:05.601Z,51.73
2023-12-16T23:54:33.808Z,51.63
2023-12-16T23:57:02.779Z,51.68
2023-12-16T23:59:31.467Z,51.82
